Wednesday, August 31, 2016, 10:12 AM EDT

KMDT, Harrisburg International Airport

Location: Middletown, PA, United States Lat: 40.2
Local Time: 10:12 AM EDT (14:12 GMT) Lon: -76.767
Time Zone: US/Eastern Elev: 308 ft

Show me the last for .
Show Decoded

2016-08-31 09:56 METAR KMDT 311356Z 00000KT 10SM SCT120 BKN200 26/19 A2999 RMK AO2 SLP153
                 T02610194 =
2016-08-31 08:56 METAR KMDT 311256Z 00000KT 10SM BKN200 24/19 A3000 =
2016-08-31 07:56 METAR KMDT 311156Z 10004KT 8SM SCT200 22/19 A3001 RMK AO2 SLP160 T02170194 10217
                 20189 58004 =
2016-08-31 06:56 METAR KMDT 311056Z 10004KT 8SM SCT250 20/18 A3002 =
2016-08-31 05:56 METAR KMDT 310956Z VRB03KT 7SM BKN250 21/20 A3002 =
2016-08-31 04:56 METAR KMDT 310856Z 17003KT 10SM BKN250 21/19 A3002 RMK AO2 SLP164 T02060194
                 56005 =
2016-08-31 03:56 METAR KMDT 310756Z 07003KT 10SM BKN250 21/18 A3003 RMK AO2 SLP166 T02060183 =
2016-08-31 02:56 METAR KMDT 310656Z 00000KT 10SM BKN250 21/19 A3003 RMK AO2 SLP168 T02060189 =
2016-08-31 01:56 METAR KMDT 310556Z 00000KT 10SM BKN250 21/18 A3004 RMK AO2 SLP170 60000
                 T02060178 10267 20206 58002 =
2016-08-31 00:56 METAR KMDT 310456Z 00000KT 10SM BKN250 22/18 A3005 =
2016-08-30 23:56 METAR KMDT 310356Z 00000KT 10SM SCT250 22/18 A3005 RMK AO2 SLP174 T02220183 =
2016-08-30 22:56 METAR KMDT 310256Z 11004KT 10SM BKN250 23/19 A3004 RMK AO2 SLP172 60000
                 T02280189 51008 =
2016-08-30 21:56 METAR KMDT 310156Z 12004KT 10SM BKN250 23/19 A3004 RMK AO2 SLP173 T02280194 =
2016-08-30 20:56 METAR KMDT 310056Z 16003KT 10SM BKN250 26/19 A3003 RMK AO2 SLP168 P0000
                 T02610189 =
2016-08-30 19:56 METAR KMDT 302356Z 00000KT 10SM FEW050 BKN250 27/19 A3002 RMK AO2 SLP164
                 T02670194 10306 20267 56010 =
2016-08-30 18:56 METAR KMDT 302256Z 14005KT 10SM FEW050 BKN250 28/19 A3002 RMK AO2 SLP165
                 T02830189 =
2016-08-30 17:56 METAR KMDT 302156Z 00000KT 10SM FEW050 SCT250 31/18 A3004 =
2016-08-30 16:56 METAR KMDT 302056Z 33004KT 10SM FEW050 SCT250 31/16 A3005 =
2016-08-30 15:56 METAR KMDT 301956Z VRB04KT 10SM FEW040 SCT250 31/15 A3007 RMK AO2 SLP179
                 T03060150 =
2016-08-30 14:56 METAR KMDT 301856Z 26003KT 10SM FEW040 SCT250 30/17 A3008 =
2016-08-30 13:56 METAR KMDT 301756Z VRB03KT 10SM SCT035 29/16 A3012 RMK AO2 SLP196 T02940161
                 10294 20211 58016 =
2016-08-30 12:56 METAR KMDT 301656Z 00000KT 10SM SCT035 28/17 A3014 RMK AO2 SLP203 T02830172 =
2016-08-30 11:56 METAR KMDT 301556Z 00000KT 10SM FEW035 27/17 A3015 RMK AO2 SLP209 T02720167 =
2016-08-30 10:56 METAR KMDT 301456Z 00000KT 10SM CLR 26/17 A3016 RMK AO2 SLP213 T02610172 58004 =

Support USWX by starting your Amazon purchase here.